Station Historical Data
Daily Summary for February 28, 2017 Units:  Metric    English   Both
« Previous Day
Next Day »
Daily Weekly Monthly Yearly Custom
  High: Low: Average:
Temperature: 15.3 °C 0.6 °C 9.1 °C
Dew Point: 10.2 °C -3.1 °C 3 °C
Humidity: 83% 48% 67%
Wind Speed: 22.5km/h 0km/h 5km/h
Wind Gust: 29km/h - -
Wind- - South
Pressure: 1026 hPa 1006.3 hPa -
Precipitation: 0 mm    
Historical Graphs
 
 
Tabular Data for February 28, 2017
Time Temperature Dew Point Pressure Wind Wind Speed Wind Gust Humidity Rainfall Rate (Hourly)
00:04 1.9 °C -2.8 °C 1025.6 hPa Calm     71% 0 mm
00:09 2 °C -2.7 °C 1025.6 hPa Calm     71% 0 mm
00:14 1.9 °C -2.6 °C 1025.6 hPa South 3.2 km/h 8 km/h 72% 0 mm
00:19 1.9 °C -2.6 °C 1025.6 hPa SSE 1.6 km/h 8 km/h 72% 0 mm
00:24 1.8 °C -2.7 °C 1026 hPa Calm   3.2 km/h 72% 0 mm
00:29 1.7 °C -2.8 °C 1026 hPa Calm   1.6 km/h 72% 0 mm
00:34 1.8 °C -2.7 °C 1026 hPa Calm     72% 0 mm
00:39 1.7 °C -2.8 °C 1026 hPa Calm     72% 0 mm
00:44 1.7 °C -2.8 °C 1026 hPa Calm     72% 0 mm
00:49 1.7 °C -2.7 °C 1026 hPa Calm     73% 0 mm
00:54 1.7 °C -2.7 °C 1026 hPa Calm   3.2 km/h 73% 0 mm
00:59 1.6 °C -2.8 °C 1026 hPa Calm   3.2 km/h 73% 0 mm
01:04 1.4 °C -2.9 °C 1026 hPa Calm     73% 0 mm
01:09 1.3 °C -2.8 °C 1026 hPa ESE 1.6 km/h 4.8 km/h 74% 0 mm
01:14 1.3 °C -2.8 °C 1026 hPa Calm   3.2 km/h 74% 0 mm
01:19 1.1 °C -3 °C 1026 hPa Calm   3.2 km/h 74% 0 mm
01:24 1.1 °C -2.9 °C 1026 hPa Calm     75% 0 mm
01:29 1.1 °C -2.8 °C 1026 hPa Calm     75% 0 mm
01:34 1.2 °C -2.8 °C 1026 hPa Calm     75% 0 mm
01:39 1.2 °C -2.8 °C 1026 hPa Calm     75% 0 mm
01:44 1.2 °C -2.8 °C 1026 hPa Calm     75% 0 mm
01:49 1.1 °C -2.9 °C 1026 hPa Calm     75% 0 mm
01:54 1 °C -2.9 °C 1026 hPa Calm     75% 0 mm
01:59 0.8 °C -3.1 °C 1026 hPa Calm     75% 0 mm
02:04 0.8 °C -2.9 °C 1026 hPa Calm     76% 0 mm
02:09 0.9 °C -2.9 °C 1025.6 hPa Calm     76% 0 mm
02:14 1 °C -2.8 °C 1025.6 hPa Calm   1.6 km/h 76% 0 mm
02:19 1.1 °C -2.7 °C 1025.6 hPa Calm   1.6 km/h 76% 0 mm
02:24 1.1 °C -2.9 °C 1025.6 hPa Calm     75% 0 mm
02:29 1 °C -2.8 °C 1025.6 hPa Calm     76% 0 mm
02:34 1.1 °C -2.7 °C 1025.6 hPa Calm   1.6 km/h 76% 0 mm
02:39 1.1 °C -2.7 °C 1025.6 hPa Calm   1.6 km/h 76% 0 mm
02:44 1.2 °C -2.8 °C 1025.6 hPa Calm   3.2 km/h 75% 0 mm
02:49 1.2 °C -2.8 °C 1025.6 hPa Calm   3.2 km/h 75% 0 mm
02:54 1.1 °C -2.9 °C 1025.6 hPa Calm   3.2 km/h 75% 0 mm
02:59 0.9 °C -2.8 °C 1025.6 hPa Calm   1.6 km/h 76% 0 mm
03:04 0.9 °C -2.8 °C 1025.6 hPa Calm   3.2 km/h 76% 0 mm
03:09 0.8 °C -2.9 °C 1025.6 hPa Calm   3.2 km/h 76% 0 mm
03:14 0.7 °C -2.9 °C 1025.6 hPa Calm     77% 0 mm
03:19 0.7 °C -2.9 °C 1025.6 hPa Calm     77% 0 mm
03:24 0.7 °C -2.8 °C 1025.6 hPa Calm   1.6 km/h 77% 0 mm
03:29 0.8 °C -2.8 °C 1025.6 hPa Calm     77% 0 mm
03:34 0.7 °C -2.8 °C 1025.6 hPa Calm     77% 0 mm
03:39 0.6 °C -2.8 °C 1025.3 hPa Calm     78% 0 mm
03:44 0.7 °C -2.7 °C 1025.3 hPa Calm     78% 0 mm
03:49 0.7 °C -2.7 °C 1025.3 hPa Calm     78% 0 mm
03:54 0.9 °C -2.5 °C 1025.3 hPa Calm     78% 0 mm
03:59 1 °C -2.4 °C 1025.3 hPa Calm     78% 0 mm
04:04 1 °C -2.4 °C 1025.3 hPa Calm     78% 0 mm
04:09 1 °C -2.4 °C 1025.3 hPa Calm     78% 0 mm
04:14 1.1 °C -2.3 °C 1025.3 hPa Calm     78% 0 mm
04:19 1.1 °C -2.3 °C 1025.3 hPa Calm     78% 0 mm
04:24 1.2 °C -2.1 °C 1025.3 hPa Calm     79% 0 mm
04:29 1.4 °C -2.1 °C 1024.9 hPa Calm     78% 0 mm
04:34 1.7 °C -1.8 °C 1024.9 hPa Calm     78% 0 mm
04:39 1.9 °C -1.7 °C 1024.9 hPa Calm     77% 0 mm
04:44 1.9 °C -1.7 °C 1024.9 hPa Calm     77% 0 mm
04:49 1.9 °C -1.7 °C 1024.9 hPa Calm     77% 0 mm
04:54 2.1 °C -1.7 °C 1024.6 hPa Calm     76% 0 mm
04:59 2.1 °C -1.7 °C 1024.9 hPa Calm     76% 0 mm
05:04 2 °C -1.8 °C 1024.6 hPa Calm     76% 0 mm
05:09 2 °C -1.6 °C 1024.6 hPa Calm     77% 0 mm
05:14 1.9 °C -1.7 °C 1024.6 hPa Calm     77% 0 mm
05:19 1.9 °C -1.7 °C 1024.6 hPa Calm     77% 0 mm
05:24 2.1 °C -1.6 °C 1024.6 hPa Calm     77% 0 mm
05:29 2.2 °C -1.4 °C 1024.6 hPa Calm     77% 0 mm
05:34 2.2 °C -1.4 °C 1024.6 hPa Calm     77% 0 mm
05:39 2.1 °C -1.5 °C 1024.6 hPa Calm     77% 0 mm
05:44 2.1 °C -1.5 °C 1024.6 hPa Calm     77% 0 mm
05:49 2.2 °C -1.2 °C 1024.6 hPa Calm     78% 0 mm
05:54 2.3 °C -1.2 °C 1024.6 hPa Calm   1.6 km/h 78% 0 mm
05:59 2.2 °C -1.3 °C 1024.6 hPa Calm   3.2 km/h 78% 0 mm
06:04 2.1 °C -1.3 °C 1024.6 hPa Calm   3.2 km/h 78% 0 mm
06:09 2.1 °C -1.2 °C 1024.6 hPa ESE 1.6 km/h 4.8 km/h 79% 0 mm
06:14 2.2 °C -1.1 °C 1024.6 hPa SE 1.6 km/h 4.8 km/h 79% 0 mm
06:19 2.2 °C -1.1 °C 1024.6 hPa SE 1.6 km/h 4.8 km/h 79% 0 mm
06:24 2.3 °C -1 °C 1024.3 hPa Calm   3.2 km/h 79% 0 mm
06:29 2.3 °C -0.8 °C 1024.3 hPa SE 1.6 km/h 4.8 km/h 80% 0 mm
06:34 2.3 °C -0.8 °C 1024.3 hPa Calm   4.8 km/h 80% 0 mm
06:39 2.4 °C -0.7 °C 1024.3 hPa Calm   3.2 km/h 80% 0 mm
06:44 2.4 °C -0.7 °C 1024.3 hPa Calm     80% 0 mm
06:49 2.3 °C -0.8 °C 1023.9 hPa Calm     80% 0 mm
06:54 2.3 °C -0.6 °C 1023.9 hPa Calm     81% 0 mm
06:59 2.3 °C -0.7 °C 1023.9 hPa Calm     81% 0 mm
07:04 2.3 °C -0.5 °C 1023.9 hPa Calm   4.8 km/h 82% 0 mm
07:09 2.3 °C -0.4 °C 1023.9 hPa ESE 1.6 km/h 4.8 km/h 82% 0 mm
07:14 2.4 °C -0.3 °C 1023.9 hPa ESE 1.6 km/h 3.2 km/h 82% 0 mm
07:19 2.5 °C -0.3 °C 1023.9 hPa ESE 1.6 km/h 4.8 km/h 82% 0 mm
07:24 2.6 °C -0.1 °C 1023.6 hPa ESE 1.6 km/h 4.8 km/h 83% 0 mm
07:29 2.7 °C 0.1 °C 1023.6 hPa SE 1.6 km/h 4.8 km/h 83% 0 mm
07:34 2.8 °C 0.2 °C 1023.6 hPa ESE 1.6 km/h 4.8 km/h 83% 0 mm
07:39 2.9 °C 0.3 °C 1023.6 hPa SSE 1.6 km/h 6.4 km/h 83% 0 mm
07:44 3 °C 0.4 °C 1023.6 hPa SSE 1.6 km/h 4.8 km/h 83% 0 mm
07:49 3.2 °C 0.6 °C 1023.9 hPa SE 1.6 km/h 4.8 km/h 83% 0 mm
07:54 3.3 °C 0.7 °C 1023.6 hPa SE 3.2 km/h 6.4 km/h 83% 0 mm
07:59 3.3 °C 0.7 °C 1023.6 hPa ESE 1.6 km/h 6.4 km/h 83% 0 mm
08:04 3.5 °C 0.9 °C 1023.6 hPa ESE 1.6 km/h 6.4 km/h 83% 0 mm
08:09 3.7 °C 1.1 °C 1023.6 hPa SE 1.6 km/h 4.8 km/h 83% 0 mm
08:14 3.8 °C 1.2 °C 1023.6 hPa SE 1.6 km/h 4.8 km/h 83% 0 mm
08:19 3.9 °C 1.3 °C 1023.9 hPa Calm   6.4 km/h 83% 0 mm
08:24 4.1 °C 1.4 °C 1023.9 hPa SSE 1.6 km/h 6.4 km/h 83% 0 mm
08:29 4.3 °C 1.7 °C 1023.6 hPa SSE 3.2 km/h 6.4 km/h 83% 0 mm
08:34 4.4 °C 1.6 °C 1023.6 hPa SSE 3.2 km/h 8 km/h 82% 0 mm
08:39 4.6 °C 1.7 °C 1023.6 hPa SE 6.4 km/h 8 km/h 82% 0 mm
08:44 4.8 °C 1.9 °C 1023.6 hPa SSE 3.2 km/h 11.3 km/h 82% 0 mm
08:49 4.9 °C 1.9 °C 1023.2 hPa SE 6.4 km/h 8 km/h 81% 0 mm
08:54 5 °C 2 °C 1023.2 hPa SE 3.2 km/h 8 km/h 81% 0 mm
08:59 5.2 °C 2.2 °C 1023.2 hPa ESE 4.8 km/h 6.4 km/h 81% 0 mm
09:04 5.3 °C 2.3 °C 1023.2 hPa SSE 1.6 km/h 6.4 km/h 81% 0 mm
09:09 5.5 °C 2.5 °C 1023.2 hPa SSE 3.2 km/h 11.3 km/h 81% 0 mm
09:14 5.6 °C 2.4 °C 1023.2 hPa SE 3.2 km/h 11.3 km/h 80% 0 mm
09:19 5.7 °C 2.5 °C 1023.2 hPa SSE 3.2 km/h 8 km/h 80% 0 mm
09:24 5.9 °C 2.8 °C 1023.2 hPa SSE 3.2 km/h 8 km/h 80% 0 mm
09:29 6 °C 2.8 °C 1023.2 hPa SSE 6.4 km/h 9.7 km/h 80% 0 mm
09:34 6.1 °C 2.7 °C 1022.9 hPa South 4.8 km/h 8 km/h 79% 0 mm
09:39 6.2 °C 2.8 °C 1022.9 hPa SE 3.2 km/h 8 km/h 79% 0 mm
09:44 6.3 °C 2.9 °C 1022.6 hPa SSE 4.8 km/h 8 km/h 79% 0 mm
09:49 6.4 °C 3 °C 1022.6 hPa SSE 3.2 km/h 9.7 km/h 79% 0 mm
09:54 6.6 °C 3 °C 1022.9 hPa SSE 3.2 km/h 6.4 km/h 78% 0 mm
09:59 6.8 °C 3.2 °C 1022.6 hPa SE 1.6 km/h 4.8 km/h 78% 0 mm
10:04 6.9 °C 3.3 °C 1022.6 hPa SSE 4.8 km/h 8 km/h 78% 0 mm
10:09 7 °C 3.2 °C 1022.6 hPa SSW 3.2 km/h 6.4 km/h 77% 0 mm
10:14 7.1 °C 3.3 °C 1022.2 hPa SSE 4.8 km/h 6.4 km/h 77% 0 mm
10:19 7.3 °C 3.4 °C 1022.2 hPa SSE 3.2 km/h 6.4 km/h 76% 0 mm
10:24 7.4 °C 3.5 °C 1022.2 hPa SSE 3.2 km/h 6.4 km/h 76% 0 mm
10:29 7.7 °C 3.8 °C 1022.2 hPa SSE 3.2 km/h 6.4 km/h 76% 0 mm
10:34 8.1 °C 3.9 °C 1021.9 hPa SE 3.2 km/h 8 km/h 75% 0 mm
10:39 8.3 °C 3.9 °C 1021.2 hPa ESE 3.2 km/h 6.4 km/h 74% 0 mm
10:44 8.6 °C 4 °C 1020.9 hPa South 3.2 km/h 9.7 km/h 73% 0 mm
10:49 8.9 °C 3.9 °C 1020.2 hPa ESE 4.8 km/h 9.7 km/h 71% 0 mm
10:54 9.3 °C 4.3 °C 1020.2 hPa ESE 4.8 km/h 11.3 km/h 71% 0 mm
10:59 9.7 °C 4.4 °C 1019.9 hPa ESE 3.2 km/h 11.3 km/h 70% 0 mm
11:04 9.9 °C 4.5 °C 1019.9 hPa SSE 1.6 km/h 9.7 km/h 69% 0 mm
11:09 10.2 °C 4.6 °C 1019.5 hPa SE 6.4 km/h 8 km/h 68% 0 mm
11:14 10.5 °C 4.4 °C 1019.9 hPa South 6.4 km/h 11.3 km/h 66% 0 mm
11:19 11.2 °C 4.7 °C 1019.5 hPa SSE 6.4 km/h 12.9 km/h 64% 0 mm
11:24 11.4 °C 4.8 °C 1019.5 hPa SE 6.4 km/h 12.9 km/h 64% 0 mm
11:29 11.8 °C 4.8 °C 1019.5 hPa SSE 4.8 km/h 11.3 km/h 62% 0 mm
11:34 12.6 °C 5 °C 1019.9 hPa South 4.8 km/h 11.3 km/h 60% 0 mm
11:39 12.6 °C 4.6 °C 1019.9 hPa SSE 6.4 km/h 14.5 km/h 58% 0 mm
11:44 13.3 °C 4.7 °C 1019.9 hPa SSW 6.4 km/h 11.3 km/h 56% 0 mm
11:49 13.1 °C 4.3 °C 1019.5 hPa SSW 11.3 km/h 16.1 km/h 55% 0 mm
11:54 13 °C 4.4 °C 1019.5 hPa South 9.7 km/h 17.7 km/h 56% 0 mm
11:59 13 °C 4.4 °C 1019.5 hPa South 8 km/h 17.7 km/h 56% 0 mm
12:04 13.4 °C 4.8 °C 1019.5 hPa SSW 6.4 km/h 19.3 km/h 56% 0 mm
12:09 13.3 °C 4.5 °C 1019.2 hPa SSE 6.4 km/h 14.5 km/h 55% 0 mm
12:14 13.9 °C 4.7 °C 1019.2 hPa SW 9.7 km/h 14.5 km/h 54% 0 mm
12:19 14.3 °C 5.2 °C 1019.2 hPa South 16.1 km/h 19.3 km/h 54% 0 mm
12:24 14.3 °C 4.8 °C 1018.8 hPa SSW 9.7 km/h 19.3 km/h 53% 0 mm
12:29 14.4 °C 5.2 °C 1018.8 hPa SSW 9.7 km/h 17.7 km/h 54% 0 mm
12:34 14.2 °C 4.8 °C 1018.5 hPa SSW 6.4 km/h 19.3 km/h 53% 0 mm
12:39 14.3 °C 4.8 °C 1018.5 hPa South 4.8 km/h 16.1 km/h 53% 0 mm
12:44 14.3 °C 4.9 °C 1018.2 hPa SW 11.3 km/h 17.7 km/h 53% 0 mm
12:49 14.4 °C 4.9 °C 1018.2 hPa SSE 3.2 km/h 16.1 km/h 53% 0 mm
12:54 14.4 °C 4.9 °C 1018.2 hPa SSW 11.3 km/h 17.7 km/h 53% 0 mm
12:59 14.4 °C 5 °C 1017.8 hPa SSW 9.7 km/h 17.7 km/h 53% 0 mm
13:04 14.3 °C 4.9 °C 1017.5 hPa SSW 8 km/h 20.9 km/h 53% 0 mm
13:09 14.6 °C 5.1 °C 1017.5 hPa SSW 8 km/h 20.9 km/h 53% 0 mm
13:14 14.7 °C 4.9 °C 1017.5 hPa South 8 km/h 16.1 km/h 52% 0 mm
13:19 14.8 °C 5.3 °C 1017.2 hPa South 8 km/h 14.5 km/h 53% 0 mm
13:24 15.1 °C 5.3 °C 1016.8 hPa South 6.4 km/h 14.5 km/h 52% 0 mm
13:29 15.2 °C 5.1 °C 1016.8 hPa SSW 11.3 km/h 17.7 km/h 51% 0 mm
13:34 15.3 °C 5.2 °C 1016.8 hPa WSW 4.8 km/h 17.7 km/h 51% 0 mm
13:39 15.1 °C 4.8 °C 1016.5 hPa SSW 11.3 km/h 20.9 km/h 50% 0 mm
13:44 14.9 °C 4.9 °C 1016.1 hPa SSE 4.8 km/h 16.1 km/h 51% 0 mm
13:49 14.9 °C 4.9 °C 1016.1 hPa WSW 8 km/h 27.4 km/h 51% 0 mm
13:54 15.1 °C 5 °C 1016.1 hPa South 4.8 km/h 19.3 km/h 51% 0 mm
13:59 15.2 °C 5.1 °C 1015.8 hPa South 9.7 km/h 22.5 km/h 51% 0 mm
14:04 15.1 °C 4.7 °C 1015.8 hPa South 11.3 km/h 22.5 km/h 50% 0 mm
14:09 14.9 °C 4.6 °C 1015.8 hPa South 12.9 km/h 24.1 km/h 50% 0 mm
14:14 14.7 °C 4.4 °C 1015.5 hPa South 11.3 km/h 24.1 km/h 50% 0 mm
14:19 14.7 °C 4.6 °C 1015.1 hPa South 9.7 km/h 19.3 km/h 51% 0 mm
14:24 14.7 °C 4.6 °C 1015.1 hPa South 9.7 km/h 16.1 km/h 51% 0 mm
14:29 14.7 °C 4.4 °C 1015.1 hPa South 8 km/h 19.3 km/h 50% 0 mm
14:34 14.7 °C 4.3 °C 1015.1 hPa South 9.7 km/h 19.3 km/h 50% 0 mm
14:39 14.7 °C 4.3 °C 1015.1 hPa South 8 km/h 14.5 km/h 50% 0 mm
14:44 14.6 °C 4.3 °C 1015.1 hPa SSE 6.4 km/h 11.3 km/h 50% 0 mm
14:49 14.6 °C 4 °C 1015.1 hPa South 4.8 km/h 14.5 km/h 49% 0 mm
14:54 14.7 °C 4.1 °C 1014.8 hPa SSE 16.1 km/h 16.1 km/h 49% 0 mm
14:59 14.7 °C 4.1 °C 1014.8 hPa South 11.3 km/h 17.7 km/h 49% 0 mm
15:04 14.8 °C 3.9 °C 1014.8 hPa South 4.8 km/h 12.9 km/h 48% 0 mm
15:09 14.7 °C 3.8 °C 1014.4 hPa South 8 km/h 16.1 km/h 48% 0 mm
15:14 14.7 °C 4.1 °C 1014.4 hPa South 8 km/h 16.1 km/h 49% 0 mm
15:19 14.7 °C 4.1 °C 1014.1 hPa South 6.4 km/h 14.5 km/h 49% 0 mm
15:24 14.7 °C 4.1 °C 1014.1 hPa South 8 km/h 14.5 km/h 49% 0 mm
15:29 14.7 °C 4.1 °C 1014.1 hPa South 6.4 km/h 14.5 km/h 49% 0 mm
15:39 14.7 °C 4.1 °C 1013.8 hPa South 4.8 km/h 11.3 km/h 49% 0 mm
15:44 14.7 °C 4.1 °C 1013.8 hPa SSE 3.2 km/h 9.7 km/h 49% 0 mm
15:49 14.7 °C 4.4 °C 1013.4 hPa SE 4.8 km/h 8 km/h 50% 0 mm
15:54 14.7 °C 4.1 °C 1013.4 hPa SSE 4.8 km/h 6.4 km/h 49% 0 mm
15:59 14.7 °C 4.1 °C 1013.1 hPa SSE 3.2 km/h 9.7 km/h 49% 0 mm
16:04 14.7 °C 4.3 °C 1013.1 hPa South 4.8 km/h 9.7 km/h 50% 0 mm
16:09 14.6 °C 4.3 °C 1013.1 hPa SSE 1.6 km/h 9.7 km/h 50% 0 mm
16:14 14.7 °C 4.3 °C 1013.1 hPa SSE 3.2 km/h 9.7 km/h 50% 0 mm
16:19 14.7 °C 4.1 °C 1013.1 hPa SSE 3.2 km/h 6.4 km/h 49% 0 mm
16:24 14.7 °C 4.1 °C 1013.1 hPa SSE 3.2 km/h 8 km/h 49% 0 mm
16:29 14.7 °C 4.1 °C 1013.1 hPa SSE 3.2 km/h 8 km/h 49% 0 mm
16:34 14.7 °C 4.3 °C 1012.8 hPa SSE 3.2 km/h 8 km/h 50% 0 mm
16:39 14.7 °C 4.1 °C 1012.8 hPa SE 3.2 km/h 8 km/h 49% 0 mm
16:44 14.6 °C 4.2 °C 1012.8 hPa South 1.6 km/h 4.8 km/h 50% 0 mm
16:49 14.6 °C 4 °C 1012.8 hPa SE 3.2 km/h 6.4 km/h 49% 0 mm
16:54 14.7 °C 4.1 °C 1012.8 hPa South 1.6 km/h 4.8 km/h 49% 0 mm
16:59 14.7 °C 4.1 °C 1012.8 hPa SE 8 km/h 11.3 km/h 49% 0 mm
17:04 14.7 °C 4.1 °C 1012.8 hPa SSE 3.2 km/h 8 km/h 49% 0 mm
17:09 14.7 °C 4.1 °C 1012.8 hPa SSW 1.6 km/h 9.7 km/h 49% 0 mm
17:14 14.7 °C 4.3 °C 1012.4 hPa SSE 1.6 km/h 8 km/h 50% 0 mm
17:19 14.6 °C 4.3 °C 1012.4 hPa South 4.8 km/h 9.7 km/h 50% 0 mm
17:24 14.5 °C 4.2 °C 1012.4 hPa South 4.8 km/h 9.7 km/h 50% 0 mm
17:29 14.5 °C 4.5 °C 1012.4 hPa South 4.8 km/h 11.3 km/h 51% 0 mm
17:34 14.6 °C 4.5 °C 1012.1 hPa SSW 4.8 km/h 11.3 km/h 51% 0 mm
17:39 14.5 °C 4.8 °C 1012.4 hPa SSW 3.2 km/h 11.3 km/h 52% 0 mm
17:44 14.7 °C 4.9 °C 1012.1 hPa SSW 6.4 km/h 14.5 km/h 52% 0 mm
17:49 14.8 °C 5.1 °C 1012.1 hPa SSW 8 km/h 16.1 km/h 52% 0 mm
17:54 14.8 °C 5.3 °C 1012.1 hPa SSW 6.4 km/h 11.3 km/h 53% 0 mm
17:59 14.8 °C 5.3 °C 1012.1 hPa SSW 3.2 km/h 14.5 km/h 53% 0 mm
18:04 14.8 °C 5.6 °C 1012.1 hPa SW 4.8 km/h 11.3 km/h 54% 0 mm
18:09 14.8 °C 5.6 °C 1012.1 hPa SW 6.4 km/h 12.9 km/h 54% 0 mm
18:14 14.8 °C 5.8 °C 1011.7 hPa SSW 4.8 km/h 12.9 km/h 55% 0 mm
18:19 14.8 °C 5.9 °C 1012.1 hPa SSW 8 km/h 19.3 km/h 55% 0 mm
18:24 14.8 °C 5.9 °C 1012.1 hPa SSW 8 km/h 19.3 km/h 55% 0 mm
18:29 14.8 °C 6.1 °C 1012.1 hPa SSW 6.4 km/h 17.7 km/h 56% 0 mm
18:34 14.8 °C 6.3 °C 1011.7 hPa SSW 8 km/h 17.7 km/h 57% 0 mm
18:39 14.8 °C 6.3 °C 1011.7 hPa SSW 8 km/h 20.9 km/h 57% 0 mm
18:44 14.7 °C 6.6 °C 1011.4 hPa SSW 9.7 km/h 16.1 km/h 58% 0 mm
18:49 14.7 °C 6.7 °C 1011.1 hPa SW 9.7 km/h 14.5 km/h 59% 0 mm
18:54 14.7 °C 6.8 °C 1011.1 hPa SSW 9.7 km/h 19.3 km/h 59% 0 mm
18:59 14.7 °C 7 °C 1011.1 hPa South 9.7 km/h 19.3 km/h 60% 0 mm
19:04 14.6 °C 6.9 °C 1010.7 hPa South 8 km/h 16.1 km/h 60% 0 mm
19:09 14.6 °C 6.9 °C 1010.7 hPa South 17.7 km/h 22.5 km/h 60% 0 mm
19:14 14.6 °C 6.9 °C 1010.7 hPa SSE 9.7 km/h 24.1 km/h 60% 0 mm
19:19 14.6 °C 6.9 °C 1010.4 hPa South 11.3 km/h 17.7 km/h 60% 0 mm
19:24 14.6 °C 6.9 °C 1010.7 hPa SSW 8 km/h 17.7 km/h 60% 0 mm
19:29 14.6 °C 6.9 °C 1010.7 hPa SSW 8 km/h 16.1 km/h 60% 0 mm
19:34 14.7 °C 6.7 °C 1010.4 hPa SSW 8 km/h 16.1 km/h 59% 0 mm
19:39 14.6 °C 6.9 °C 1010.4 hPa South 12.9 km/h 14.5 km/h 60% 0 mm
19:44 14.6 °C 6.9 °C 1010 hPa South 22.5 km/h 22.5 km/h 60% 0 mm
19:49 14.6 °C 6.9 °C 1010 hPa SSW 4.8 km/h 22.5 km/h 60% 0 mm
19:54 14.6 °C 6.9 °C 1010 hPa SSW 9.7 km/h 20.9 km/h 60% 0 mm
19:59 14.6 °C 6.9 °C 1010 hPa South 9.7 km/h 20.9 km/h 60% 0 mm
20:04 14.6 °C 7.2 °C 1010 hPa SSW 9.7 km/h 20.9 km/h 61% 0 mm
20:09 14.7 °C 7.2 °C 1010 hPa SSW 11.3 km/h 19.3 km/h 61% 0 mm
20:14 14.7 °C 7.2 °C 1010 hPa SW 3.2 km/h 19.3 km/h 61% 0 mm
20:19 14.7 °C 7.2 °C 1009.7 hPa SSW 9.7 km/h 20.9 km/h 61% 0 mm
20:24 14.7 °C 7.4 °C 1009.7 hPa SSW 11.3 km/h 16.1 km/h 62% 0 mm
20:29 14.6 °C 7.4 °C 1009.7 hPa SSW 9.7 km/h 19.3 km/h 62% 0 mm
20:34 14.6 °C 7.4 °C 1009.7 hPa SSW 11.3 km/h 19.3 km/h 62% 0 mm
20:39 14.6 °C 7.6 °C 1009.4 hPa SSW 11.3 km/h 20.9 km/h 63% 0 mm
20:44 14.6 °C 7.8 °C 1009.4 hPa SSW 11.3 km/h 20.9 km/h 64% 0 mm
20:49 14.5 °C 7.8 °C 1009 hPa SW 6.4 km/h 20.9 km/h 64% 0 mm
20:54 14.4 °C 7.9 °C 1009 hPa South 14.5 km/h 19.3 km/h 65% 0 mm
20:59 14.3 °C 8.1 °C 1008.7 hPa SSW 11.3 km/h 20.9 km/h 66% 0 mm
21:04 14.3 °C 8.1 °C 1008.7 hPa SSW 4.8 km/h 19.3 km/h 66% 0 mm
21:09 14.3 °C 8.3 °C 1008.7 hPa South 6.4 km/h 20.9 km/h 67% 0 mm
21:14 14.4 °C 8.3 °C 1009 hPa SW 4.8 km/h 19.3 km/h 67% 0 mm
21:19 14.4 °C 8.4 °C 1008.7 hPa South 12.9 km/h 20.9 km/h 67% 0 mm
21:24 14.4 °C 8.6 °C 1008.7 hPa SW 9.7 km/h 20.9 km/h 68% 0 mm
21:29 14.5 °C 8.7 °C 1008.7 hPa SSW 9.7 km/h 20.9 km/h 68% 0 mm
21:34 14.5 °C 8.7 °C 1008.7 hPa SSW 9.7 km/h 22.5 km/h 68% 0 mm
21:39 14.4 °C 8.6 °C 1008.7 hPa SSW 9.7 km/h 22.5 km/h 68% 0 mm
21:44 14.4 °C 8.8 °C 1008.7 hPa SSW 9.7 km/h 24.1 km/h 69% 0 mm
21:49 14.4 °C 8.8 °C 1008.4 hPa SSW 11.3 km/h 24.1 km/h 69% 0 mm
21:54 14.4 °C 8.8 °C 1008.4 hPa SSW 6.4 km/h 24.1 km/h 69% 0 mm
21:59 14.4 °C 9 °C 1008.4 hPa SSW 9.7 km/h 24.1 km/h 70% 0 mm
22:04 14.4 °C 9.1 °C 1008.4 hPa SSW 20.9 km/h 25.7 km/h 70% 0 mm
22:09 14.4 °C 9.1 °C 1008 hPa SSW 11.3 km/h 27.4 km/h 70% 0 mm
22:14 14.4 °C 9.1 °C 1008 hPa SSW 11.3 km/h 24.1 km/h 70% 0 mm
22:19 14.4 °C 9 °C 1008 hPa SW 12.9 km/h 24.1 km/h 70% 0 mm
22:24 14.4 °C 9 °C 1007.7 hPa SSE 8 km/h 24.1 km/h 70% 0 mm
22:29 14.3 °C 9.1 °C 1007.7 hPa SSE 4.8 km/h 22.5 km/h 71% 0 mm
22:34 14.2 °C 9.1 °C 1007.3 hPa SSW 9.7 km/h 22.5 km/h 71% 0 mm
22:39 14.1 °C 9.1 °C 1007.3 hPa SSW 9.7 km/h 24.1 km/h 72% 0 mm
22:44 14.2 °C 9.2 °C 1007.3 hPa SSW 9.7 km/h 24.1 km/h 72% 0 mm
22:49 14.2 °C 9.4 °C 1007 hPa SSW 8 km/h 17.7 km/h 73% 0 mm
22:54 14.3 °C 9.5 °C 1007.3 hPa SSW 9.7 km/h 25.7 km/h 73% 0 mm
22:59 14.4 °C 9.6 °C 1007 hPa SW 6.4 km/h 17.7 km/h 73% 0 mm
23:04 14.3 °C 9.6 °C 1006.7 hPa SSW 9.7 km/h 19.3 km/h 73% 0 mm
23:09 14.3 °C 9.8 °C 1006.7 hPa SSW 9.7 km/h 19.3 km/h 74% 0 mm
23:14 14.3 °C 9.7 °C 1006.7 hPa SW 8 km/h 17.7 km/h 74% 0 mm
23:19 14.3 °C 9.7 °C 1006.7 hPa SW 17.7 km/h 24.1 km/h 74% 0 mm
23:24 14.3 °C 9.9 °C 1006.3 hPa SSW 14.5 km/h 24.1 km/h 75% 0 mm
23:29 14.3 °C 9.9 °C 1006.3 hPa SSW 11.3 km/h 29 km/h 75% 0 mm
23:34 14.4 °C 10 °C 1006.3 hPa WSW 17.7 km/h 24.1 km/h 75% 0 mm
23:39 14.3 °C 9.9 °C 1006.3 hPa SSW 11.3 km/h 24.1 km/h 75% 0 mm
23:44 14.3 °C 9.9 °C 1006.3 hPa SSW 9.7 km/h 22.5 km/h 75% 0 mm
23:49 14.3 °C 10.2 °C 1006.3 hPa SSW 9.7 km/h 24.1 km/h 76% 0 mm
23:54 14.3 °C 10.2 °C 1006.3 hPa SSW 11.3 km/h 24.1 km/h 76% 0 mm
23:59 14.3 °C 10.2 °C 1006.3 hPa West 4.8 km/h 22.5 km/h 76% 0 mm
Buffalo, New York, USA
Compliments of Weather Underground - 2.5 mb